createdAt,value
2022-08-17T00:01:30.080Z,22.08
2022-08-17T00:04:12.319Z,23.27
2022-08-17T00:06:42.870Z,22.13
2022-08-17T00:09:12.806Z,24.65
2022-08-17T00:12:42.111Z,25.55
2022-08-17T00:14:32.868Z,23.83
2022-08-17T00:16:59.489Z,24.02
2022-08-17T00:19:26.901Z,24.33
2022-08-17T00:22:32.814Z,23.67
2022-08-17T00:24:44.072Z,23.30
2022-08-17T00:27:10.568Z,24.08
2022-08-17T00:29:37.023Z,26.02
2022-08-17T00:33:11.875Z,24.50
2022-08-17T00:34:50.944Z,23.60
2022-08-17T00:37:17.469Z,23.98
2022-08-17T00:39:44.254Z,23.27
2022-08-17T00:42:19.532Z,24.08
2022-08-17T00:44:46.723Z,23.90
2022-08-17T00:47:14.002Z,24.10
2022-08-17T00:49:40.650Z,25.60
2022-08-17T00:52:15.527Z,23.05
2022-08-17T00:54:46.465Z,24.63
2022-08-17T00:57:21.813Z,23.55
2022-08-17T01:00:02.655Z,24.17
2022-08-17T01:02:34.442Z,23.45
2022-08-17T01:05:13.674Z,26.20
2022-08-17T01:07:41.421Z,23.48
2022-08-17T01:10:57.279Z,25.10
2022-08-17T01:12:57.998Z,23.25
2022-08-17T01:15:24.606Z,24.27
2022-08-17T01:17:51.150Z,23.77
2022-08-17T01:20:17.804Z,24.40
2022-08-17T01:22:44.422Z,25.42
2022-08-17T01:25:12.583Z,22.75
2022-08-17T01:27:39.419Z,23.05
2022-08-17T01:30:56.813Z,23.27
2022-08-17T01:32:56.952Z,22.88
2022-08-17T01:35:23.533Z,23.33
2022-08-17T01:37:50.387Z,24.92
2022-08-17T01:40:36.158Z,25.83
2022-08-17T01:43:14.465Z,23.50
2022-08-17T01:45:47.670Z,23.27
2022-08-17T01:48:14.892Z,24.15
2022-08-17T01:50:44.556Z,23.35
2022-08-17T01:53:19.235Z,24.17
2022-08-17T01:55:52.379Z,25.60
2022-08-17T01:58:19.933Z,24.75
2022-08-17T02:01:00.556Z,25.00
2022-08-17T02:03:28.749Z,26.08
2022-08-17T02:05:55.666Z,25.63
2022-08-17T02:08:37.052Z,24.38
2022-08-17T02:11:11.900Z,25.38
2022-08-17T02:13:39.161Z,25.50
2022-08-17T02:16:06.062Z,24.33
2022-08-17T02:18:32.724Z,27.65
2022-08-17T02:20:59.536Z,24.90
2022-08-17T02:23:30.523Z,25.90
2022-08-17T02:25:59.724Z,23.83
2022-08-17T02:28:26.317Z,25.05
2022-08-17T02:31:02.589Z,24.75
2022-08-17T02:33:41.863Z,26.35
2022-08-17T02:36:09.276Z,27.08
2022-08-17T02:38:37.686Z,24.58
2022-08-17T02:41:04.544Z,23.27
2022-08-17T02:43:31.898Z,23.77
2022-08-17T02:45:58.322Z,27.13
2022-08-17T02:48:30.437Z,29.13
2022-08-17T02:50:58.481Z,33.88
2022-08-17T02:53:25.643Z,31.90
2022-08-17T02:55:52.687Z,34.03
2022-08-17T02:58:34.326Z,33.83
2022-08-17T03:01:03.229Z,31.10
2022-08-17T03:03:29.802Z,28.15
2022-08-17T03:05:56.409Z,28.58
2022-08-17T03:08:23.355Z,27.60
2022-08-17T03:10:50.505Z,25.88
2022-08-17T03:13:18.088Z,25.98
2022-08-17T03:15:45.928Z,23.02
2022-08-17T03:18:25.096Z,25.35
2022-08-17T03:20:59.621Z,24.05
2022-08-17T03:23:29.547Z,23.25
2022-08-17T03:25:57.101Z,23.88
2022-08-17T03:28:24.220Z,23.98
2022-08-17T03:30:51.626Z,24.80
2022-08-17T03:33:18.997Z,23.50
2022-08-17T03:35:46.195Z,21.35
2022-08-17T03:38:15.885Z,21.25
2022-08-17T03:40:57.160Z,20.65
2022-08-17T03:43:31.737Z,20.73
2022-08-17T03:46:33.917Z,20.55
2022-08-17T03:49:23.336Z,20.25
2022-08-17T03:52:08.637Z,20.17
2022-08-17T03:54:53.604Z,17.25
2022-08-17T03:57:20.290Z,17.90
2022-08-17T03:59:47.571Z,18.23
2022-08-17T04:02:20.216Z,13.93
2022-08-17T04:04:46.913Z,10.18
2022-08-17T04:07:13.468Z,8.70
2022-08-17T04:09:40.006Z,5.38
2022-08-17T04:12:09.317Z,4.05
2022-08-17T04:14:51.876Z,4.20
2022-08-17T04:17:20.049Z,4.50
2022-08-17T04:19:46.720Z,4.13
2022-08-17T04:22:30.626Z,3.63
2022-08-17T04:25:05.661Z,3.80
2022-08-17T04:27:32.354Z,4.18
2022-08-17T04:29:58.858Z,4.55
2022-08-17T04:33:04.386Z,3.67
2022-08-17T04:35:11.851Z,3.60
2022-08-17T04:37:38.282Z,4.90
2022-08-17T04:40:25.952Z,5.18
2022-08-17T04:43:07.291Z,4.55
2022-08-17T04:45:33.896Z,4.65
2022-08-17T04:48:01.240Z,4.50
2022-08-17T04:50:27.823Z,3.40
2022-08-17T04:52:54.488Z,4.45
2022-08-17T04:55:21.477Z,5.32
2022-08-17T04:57:48.012Z,5.38
2022-08-17T05:00:14.927Z,3.15
2022-08-17T05:02:50.921Z,4.53
2022-08-17T05:05:29.708Z,9.75
2022-08-17T05:08:00.781Z,15.18
2022-08-17T05:10:30.669Z,17.42
2022-08-17T05:13:02.948Z,19.20
2022-08-17T05:15:33.112Z,18.15
2022-08-17T05:18:04.074Z,18.25
2022-08-17T05:20:31.708Z,14.90
2022-08-17T05:23:00.913Z,13.38
2022-08-17T05:25:37.558Z,13.05
2022-08-17T05:28:05.274Z,11.18
2022-08-17T05:30:33.946Z,12.02
2022-08-17T05:33:03.872Z,8.90
2022-08-17T05:35:33.371Z,9.00
2022-08-17T05:38:00.785Z,8.75
2022-08-17T05:40:28.379Z,8.77
2022-08-17T05:43:39.041Z,8.10
2022-08-17T05:46:18.965Z,8.00
2022-08-17T05:48:51.841Z,8.20
2022-08-17T05:51:37.045Z,8.10
2022-08-17T05:54:24.742Z,6.47
2022-08-17T05:57:15.150Z,5.60
2022-08-17T05:59:41.849Z,3.78
2022-08-17T06:02:18.622Z,4.68
2022-08-17T06:05:10.325Z,3.30
2022-08-17T06:07:52.677Z,3.30
2022-08-17T06:10:32.981Z,3.50
2022-08-17T06:13:14.453Z,3.60
2022-08-17T06:15:43.505Z,3.47
2022-08-17T06:18:18.906Z,3.90
2022-08-17T06:20:56.477Z,3.42
2022-08-17T06:23:37.474Z,3.50
2022-08-17T06:26:31.225Z,4.22
2022-08-17T06:29:30.699Z,4.53
2022-08-17T06:32:06.265Z,4.78
2022-08-17T06:34:37.989Z,4.82
2022-08-17T06:37:39.178Z,5.70
2022-08-17T06:40:18.644Z,6.05
2022-08-17T06:43:05.681Z,6.72
2022-08-17T06:45:49.203Z,6.40
2022-08-17T06:48:31.663Z,5.07
2022-08-17T06:51:11.229Z,4.78
2022-08-17T06:53:48.282Z,5.13
2022-08-17T06:56:27.064Z,5.75
2022-08-17T06:59:19.612Z,5.75
2022-08-17T07:01:49.614Z,6.15
2022-08-17T07:04:23.465Z,6.80
2022-08-17T07:09:51.305Z,9.30
2022-08-17T07:12:22.483Z,8.93
2022-08-17T07:14:53.210Z,8.73
2022-08-17T07:17:22.397Z,7.40
2022-08-17T07:20:17.809Z,5.90
2022-08-17T07:23:19.054Z,6.40
2022-08-17T07:25:45.705Z,5.82
2022-08-17T07:28:12.970Z,6.43
2022-08-17T07:30:46.983Z,8.80
2022-08-17T07:33:21.053Z,9.80
2022-08-17T07:35:48.523Z,10.70
2022-08-17T07:38:30.344Z,10.48
2022-08-17T07:41:02.041Z,11.73
2022-08-17T07:43:39.607Z,10.73
2022-08-17T07:46:32.378Z,10.45
2022-08-17T07:49:07.892Z,9.48
2022-08-17T07:51:43.903Z,9.80
2022-08-17T07:54:22.425Z,9.38
2022-08-17T07:56:55.517Z,10.25
2022-08-17T07:59:34.402Z,13.55
2022-08-17T08:05:00.198Z,12.90
2022-08-17T08:07:38.146Z,10.18
2022-08-17T08:10:16.806Z,15.38
2022-08-17T08:12:53.694Z,16.73
2022-08-17T08:15:22.239Z,16.42
2022-08-17T08:17:57.698Z,16.50
2022-08-17T08:20:51.358Z,16.98
2022-08-17T08:23:57.378Z,14.15
2022-08-17T08:26:55.414Z,16.42
2022-08-17T08:29:31.026Z,17.95
2022-08-17T08:32:03.932Z,15.02
2022-08-17T08:35:08.200Z,16.40
2022-08-17T08:37:59.860Z,12.80
2022-08-17T08:40:54.333Z,10.93
2022-08-17T08:43:29.932Z,7.75
2022-08-17T08:46:02.382Z,9.25
2022-08-17T08:48:58.417Z,7.65
2022-08-17T08:51:48.435Z,8.15
2022-08-17T08:54:22.324Z,9.23
2022-08-17T08:57:23.177Z,9.02
2022-08-17T09:00:15.652Z,9.40
2022-08-17T09:03:02.907Z,9.77
2022-08-17T09:05:54.117Z,10.05
2022-08-17T09:08:43.695Z,10.07
2022-08-17T09:11:22.387Z,10.27
2022-08-17T09:13:58.168Z,9.25
2022-08-17T09:16:37.370Z,9.48
2022-08-17T09:19:11.897Z,9.73
2022-08-17T09:21:49.703Z,9.60
2022-08-17T09:24:33.510Z,10.38
2022-08-17T09:27:11.538Z,11.95
2022-08-17T09:29:43.502Z,11.73
2022-08-17T09:32:19.596Z,11.02
2022-08-17T09:35:01.420Z,10.75
2022-08-17T09:37:37.523Z,11.68
2022-08-17T09:40:17.465Z,13.30
2022-08-17T09:42:52.392Z,14.48
2022-08-17T09:45:26.338Z,11.68
2022-08-17T09:47:59.896Z,11.55
2022-08-17T09:51:04.705Z,11.50
2022-08-17T09:53:35.637Z,11.00
2022-08-17T09:56:12.536Z,10.70
2022-08-17T09:59:09.132Z,10.25
2022-08-17T10:01:43.231Z,11.00
2022-08-17T10:04:29.880Z,10.93
2022-08-17T10:07:30.542Z,11.35
2022-08-17T10:10:03.097Z,10.88
2022-08-17T10:12:46.484Z,10.85
2022-08-17T10:15:22.453Z,12.45
2022-08-17T10:18:20.636Z,11.20
2022-08-17T10:24:02.702Z,11.82
2022-08-17T10:26:46.303Z,12.70
2022-08-17T10:29:28.883Z,13.20
2022-08-17T10:32:01.530Z,13.65
2022-08-17T10:34:41.212Z,12.82
2022-08-17T10:37:37.693Z,13.43
2022-08-17T10:40:24.518Z,15.75
2022-08-17T10:43:36.596Z,18.42
2022-08-17T10:46:46.256Z,18.85
2022-08-17T10:49:18.810Z,17.50
2022-08-17T10:51:48.009Z,17.92
2022-08-17T10:54:58.092Z,16.80
2022-08-17T10:57:38.946Z,18.55
2022-08-17T11:03:01.041Z,18.65
2022-08-17T11:05:44.145Z,20.58
2022-08-17T11:08:33.397Z,17.05
2022-08-17T11:11:19.743Z,19.90
2022-08-17T11:14:11.238Z,17.88
2022-08-17T11:16:57.292Z,18.30
2022-08-17T11:22:34.027Z,17.67
2022-08-17T11:25:17.210Z,16.58
2022-08-17T11:27:53.359Z,14.30
2022-08-17T11:30:46.893Z,14.25
2022-08-17T11:33:33.924Z,14.68
2022-08-17T11:36:33.028Z,12.68
2022-08-17T11:39:17.547Z,13.38
2022-08-17T11:42:22.002Z,12.60
2022-08-17T11:44:55.642Z,14.23
2022-08-17T11:48:27.065Z,15.05
2022-08-17T11:51:19.224Z,16.42
2022-08-17T11:53:45.823Z,16.88
2022-08-17T11:56:32.767Z,16.13
2022-08-17T11:59:00.807Z,14.45
2022-08-17T12:01:28.966Z,16.88
2022-08-17T12:04:24.975Z,15.40
2022-08-17T12:06:56.859Z,16.08
2022-08-17T12:09:29.835Z,14.65
2022-08-17T12:12:14.549Z,15.00
2022-08-17T12:15:09.459Z,13.52
2022-08-17T12:17:41.207Z,12.68
2022-08-17T12:20:33.561Z,13.32
2022-08-17T12:23:17.126Z,12.98
2022-08-17T12:25:49.451Z,9.90
2022-08-17T12:28:30.640Z,10.52
2022-08-17T12:31:03.726Z,9.82
2022-08-17T12:33:30.689Z,10.07
2022-08-17T12:36:03.922Z,9.02
2022-08-17T12:38:36.063Z,9.38
2022-08-17T12:41:24.978Z,10.57
2022-08-17T12:44:03.761Z,9.77
2022-08-17T12:46:48.245Z,10.55
2022-08-17T12:49:16.660Z,11.48
2022-08-17T12:51:48.149Z,11.45
2022-08-17T12:54:38.003Z,12.10
2022-08-17T12:57:20.471Z,10.85
2022-08-17T12:59:52.480Z,9.85
2022-08-17T13:02:24.371Z,11.23
2022-08-17T13:04:53.407Z,11.02
2022-08-17T13:07:28.409Z,11.68
2022-08-17T13:09:54.994Z,12.88
2022-08-17T13:12:39.554Z,11.60
2022-08-17T13:15:06.213Z,12.48
2022-08-17T13:17:35.974Z,12.63
2022-08-17T13:20:16.251Z,14.43
2022-08-17T13:22:44.325Z,14.73
2022-08-17T13:25:16.333Z,13.60
2022-08-17T13:27:50.665Z,14.52
2022-08-17T13:30:23.765Z,12.65
2022-08-17T13:32:50.404Z,10.40
2022-08-17T13:35:41.013Z,11.55
2022-08-17T13:38:36.065Z,14.43
2022-08-17T13:41:03.957Z,12.98
2022-08-17T13:46:21.718Z,11.18
2022-08-17T13:49:11.458Z,12.68
2022-08-17T13:51:46.352Z,11.57
2022-08-17T13:54:33.192Z,12.02
2022-08-17T13:57:06.552Z,13.55
2022-08-17T13:59:54.616Z,11.90
2022-08-17T14:02:25.974Z,12.52
2022-08-17T14:04:55.675Z,12.55
2022-08-17T14:07:31.130Z,12.98
2022-08-17T14:10:17.744Z,13.38
2022-08-17T14:12:45.412Z,12.77
2022-08-17T14:15:13.992Z,14.63
2022-08-17T14:17:40.712Z,13.18
2022-08-17T14:20:10.616Z,14.05
2022-08-17T14:22:39.549Z,14.15
2022-08-17T14:25:10.377Z,12.88
2022-08-17T14:27:52.222Z,13.63
2022-08-17T14:30:22.344Z,14.23
2022-08-17T14:32:49.572Z,14.60
2022-08-17T14:35:16.172Z,14.07
2022-08-17T14:37:44.622Z,13.80
2022-08-17T14:40:14.212Z,12.70
2022-08-17T14:42:43.908Z,14.30
2022-08-17T14:45:31.838Z,12.90
2022-08-17T14:47:59.292Z,13.25
2022-08-17T14:50:25.913Z,15.35
2022-08-17T14:52:53.928Z,15.40
2022-08-17T14:55:22.373Z,15.27
2022-08-17T14:57:49.089Z,14.38
2022-08-17T15:00:16.634Z,15.27
2022-08-17T15:02:50.854Z,16.55
2022-08-17T15:05:17.692Z,15.25
2022-08-17T15:07:44.546Z,15.85
2022-08-17T15:10:13.248Z,15.95
2022-08-17T15:12:40.924Z,16.80
2022-08-17T15:15:10.010Z,14.52
2022-08-17T15:17:44.503Z,15.30
2022-08-17T15:20:26.361Z,16.02
2022-08-17T15:22:55.302Z,15.68
2022-08-17T15:25:22.402Z,14.63
2022-08-17T15:27:49.148Z,14.07
2022-08-17T15:30:16.055Z,15.48
2022-08-17T15:32:46.865Z,17.08
2022-08-17T15:35:26.823Z,15.23
2022-08-17T15:38:06.498Z,14.05
2022-08-17T15:40:40.411Z,14.07
2022-08-17T15:43:11.225Z,13.40
2022-08-17T15:45:38.285Z,13.32
2022-08-17T15:48:04.896Z,14.20
2022-08-17T15:50:31.981Z,12.88
2022-08-17T15:53:00.783Z,13.57
2022-08-17T15:55:28.990Z,12.75
2022-08-17T15:57:55.519Z,13.60
2022-08-17T16:00:23.994Z,14.27
2022-08-17T16:03:14.597Z,16.30
2022-08-17T16:05:43.471Z,12.90
2022-08-17T16:08:11.053Z,14.18
2022-08-17T16:10:38.191Z,14.27
2022-08-17T16:13:04.694Z,15.07
2022-08-17T16:15:34.068Z,15.05
2022-08-17T16:18:00.583Z,15.45
2022-08-17T16:20:27.241Z,15.48
2022-08-17T16:22:54.129Z,15.30
2022-08-17T16:25:49.016Z,16.88
2022-08-17T16:28:16.162Z,16.40
2022-08-17T16:30:44.485Z,16.60
2022-08-17T16:33:12.176Z,17.33
2022-08-17T16:35:41.880Z,18.15
2022-08-17T16:38:09.424Z,19.30
2022-08-17T16:40:36.452Z,17.85
2022-08-17T16:43:04.331Z,16.38
2022-08-17T16:45:36.273Z,16.33
2022-08-17T16:48:02.889Z,16.45
2022-08-17T16:50:29.758Z,17.42
2022-08-17T16:53:08.424Z,17.33
2022-08-17T16:55:35.851Z,16.63
2022-08-17T16:58:06.397Z,15.90
2022-08-17T17:00:34.057Z,19.10
2022-08-17T17:03:19.128Z,15.88
2022-08-17T17:06:18.695Z,15.93
2022-08-17T17:08:55.862Z,15.57
2022-08-17T17:11:34.210Z,16.10
2022-08-17T17:14:04.784Z,18.83
2022-08-17T17:16:45.719Z,15.65
2022-08-17T17:19:51.354Z,15.98
2022-08-17T17:22:24.429Z,17.17
2022-08-17T17:25:07.692Z,15.93
2022-08-17T17:27:47.315Z,17.45
2022-08-17T17:30:20.766Z,16.67
2022-08-17T17:33:06.157Z,16.13
2022-08-17T17:35:33.887Z,15.43
2022-08-17T17:40:42.737Z,14.13
2022-08-17T17:43:37.184Z,14.00
2022-08-17T17:46:26.485Z,13.25
2022-08-17T17:48:52.825Z,12.88
2022-08-17T17:52:09.075Z,12.10
2022-08-17T17:54:46.794Z,10.65
2022-08-17T17:57:38.270Z,11.27
2022-08-17T18:00:22.070Z,10.65
2022-08-17T18:03:12.649Z,11.02
2022-08-17T18:06:25.562Z,9.80
2022-08-17T18:09:39.970Z,10.52
2022-08-17T18:12:12.182Z,10.30
2022-08-17T18:14:58.311Z,9.95
2022-08-17T18:19:55.252Z,9.00
2022-08-17T18:22:22.743Z,9.05
2022-08-17T18:24:56.124Z,9.40
2022-08-17T18:27:28.301Z,10.38
2022-08-17T18:29:56.919Z,10.23
2022-08-17T18:32:23.396Z,8.43
2022-08-17T18:34:56.599Z,9.68
2022-08-17T18:37:46.589Z,9.07
2022-08-17T18:40:16.327Z,9.27
2022-08-17T18:43:04.551Z,9.77
2022-08-17T18:45:34.777Z,8.85
2022-08-17T18:48:02.030Z,9.07
2022-08-17T18:50:43.817Z,9.73
2022-08-17T18:53:26.755Z,8.80
2022-08-17T18:56:33.438Z,8.05
2022-08-17T18:59:11.279Z,8.35
2022-08-17T19:02:10.022Z,8.13
2022-08-17T19:05:06.180Z,7.93
2022-08-17T19:07:35.749Z,8.25
2022-08-17T19:10:28.616Z,7.88
2022-08-17T19:13:00.296Z,6.80
2022-08-17T19:15:35.866Z,7.18
2022-08-17T19:18:15.806Z,7.53
2022-08-17T19:20:53.766Z,7.47
2022-08-17T19:23:53.366Z,7.60
2022-08-17T19:26:53.513Z,7.05
2022-08-17T19:29:36.469Z,6.78
2022-08-17T19:32:04.072Z,6.68
2022-08-17T19:34:34.439Z,6.60
2022-08-17T19:37:29.981Z,6.35
2022-08-17T19:40:48.814Z,5.93
2022-08-17T19:43:15.311Z,5.90
2022-08-17T19:45:50.176Z,5.97
2022-08-17T19:48:38.444Z,5.57
2022-08-17T19:51:15.563Z,5.55
2022-08-17T19:54:26.931Z,6.38
2022-08-17T19:57:22.200Z,6.65
2022-08-17T19:59:58.642Z,6.25
2022-08-17T20:02:49.761Z,6.43
2022-08-17T20:05:30.690Z,6.20
2022-08-17T20:08:11.504Z,6.70
2022-08-17T20:11:10.270Z,5.75
2022-08-17T20:13:41.433Z,6.35
2022-08-17T20:16:10.017Z,6.55
2022-08-17T20:18:48.532Z,6.80
2022-08-17T20:21:20.080Z,6.20
2022-08-17T20:23:56.350Z,5.68
2022-08-17T20:26:44.107Z,5.28
2022-08-17T20:29:39.971Z,5.97
2022-08-17T20:32:22.233Z,7.43
2022-08-17T20:35:00.367Z,6.15
2022-08-17T20:37:31.666Z,6.82
2022-08-17T20:39:58.044Z,7.07
2022-08-17T20:42:24.501Z,6.78
2022-08-17T20:44:57.596Z,5.78
2022-08-17T20:48:01.215Z,6.22
2022-08-17T20:50:34.815Z,5.63
2022-08-17T20:53:08.110Z,5.82
2022-08-17T20:55:51.791Z,5.60
2022-08-17T20:58:30.911Z,5.43
2022-08-17T21:00:57.696Z,5.75
2022-08-17T21:03:24.334Z,6.72
2022-08-17T21:05:59.943Z,5.60
2022-08-17T21:08:45.674Z,6.10
2022-08-17T21:12:02.306Z,6.70
2022-08-17T21:14:29.510Z,6.25
2022-08-17T21:16:59.205Z,6.90
2022-08-17T21:20:10.479Z,6.20
2022-08-17T21:23:03.452Z,7.40
2022-08-17T21:25:59.285Z,5.88
2022-08-17T21:29:01.085Z,5.68
2022-08-17T21:31:43.043Z,5.82
2022-08-17T21:34:16.814Z,5.85
2022-08-17T21:36:45.682Z,6.38
2022-08-17T21:39:15.893Z,6.38
2022-08-17T21:41:53.574Z,6.72
2022-08-17T21:44:31.327Z,7.63
2022-08-17T21:47:13.820Z,6.30
2022-08-17T21:49:40.660Z,5.97
2022-08-17T21:52:07.470Z,6.50
2022-08-17T21:54:39.864Z,5.57
2022-08-17T21:57:16.254Z,5.43
2022-08-17T21:59:44.143Z,4.75
2022-08-17T22:02:20.810Z,5.05
2022-08-17T22:05:02.480Z,4.50
2022-08-17T22:07:39.746Z,5.10
2022-08-17T22:10:26.507Z,4.15
2022-08-17T22:13:24.114Z,4.68
2022-08-17T22:16:29.002Z,5.32
2022-08-17T22:18:58.581Z,5.05
2022-08-17T22:21:25.574Z,5.20
2022-08-17T22:24:05.935Z,5.57
2022-08-17T22:27:10.219Z,5.57
2022-08-17T22:32:10.970Z,4.13
2022-08-17T22:34:38.993Z,5.18
2022-08-17T22:37:27.237Z,5.55
2022-08-17T22:39:58.966Z,5.00
2022-08-17T22:42:25.778Z,4.55
2022-08-17T22:44:54.528Z,4.97
2022-08-17T22:47:30.998Z,5.25
2022-08-17T22:50:04.502Z,4.20
2022-08-17T22:53:03.369Z,4.43
2022-08-17T22:55:51.706Z,4.35
2022-08-17T22:58:40.586Z,3.88
2022-08-17T23:01:43.501Z,4.20
2022-08-17T23:04:29.244Z,3.15
2022-08-17T23:06:55.863Z,3.53
2022-08-17T23:09:22.431Z,3.35
2022-08-17T23:11:52.549Z,3.53
2022-08-17T23:14:20.866Z,4.75
2022-08-17T23:16:50.947Z,4.32
2022-08-17T23:19:20.482Z,4.53
2022-08-17T23:21:51.004Z,5.20
2022-08-17T23:24:23.098Z,4.20
2022-08-17T23:26:50.065Z,4.18
2022-08-17T23:29:16.583Z,4.35
2022-08-17T23:31:43.203Z,4.47
2022-08-17T23:34:13.141Z,4.30
2022-08-17T23:36:39.644Z,4.78
2022-08-17T23:39:09.553Z,4.80
2022-08-17T23:41:39.898Z,4.25
2022-08-17T23:44:07.101Z,4.38
2022-08-17T23:46:34.671Z,4.45
2022-08-17T23:49:01.261Z,4.57
2022-08-17T23:51:31.579Z,4.47
2022-08-17T23:54:11.580Z,4.10
2022-08-17T23:56:46.540Z,3.75
2022-08-17T23:59:18.286Z,4.28
